Flight Track Log - Related Links

Times and Time Zones

All times are in EDT time to prevent confusion due to time zone crossing. See the EJA122 flight status page for this flight to view local times or setup timezone preferences in your user account.

Time Position Orientation Groundspeed Altitude Reporting Facility
EDT Latitude Longitude Course Direction KTS MPH feet Rate Location/Type
Mon 09:57:32 AM 39.5264 -107.7153 270° West 11 13 5,500  Level Denver Center
Mon 09:58:33 AM 39.5264 -107.7156 270° West 7 8 5,500 585 Level Denver Center
Mon 09:59:35 AM 39.5239 -107.7756 267° West 115 132 6,700 2,195 Climbing Denver Center
Mon 10:00:36 AM 39.5081 -107.8414 253° West 178 205 10,000 2,683 Climbing Denver Center
Mon 10:01:38 AM 39.4778 -107.8981 235° Southwest 198 228 12,200 1,694 Climbing Denver Center
Mon 10:02:40 AM 39.4350 -107.9914 239° Southwest 288 331 13,500 1,756 Climbing Denver Center
Mon 10:03:41 AM 39.4006 -108.0931 246° West 314 361 15,800 1,854 Climbing Denver Center
Mon 10:04:43 AM 39.3678 -108.2114 250° West 325 374 17,300 1,463 Climbing Denver Center
Mon 10:05:44 AM 39.3269 -108.3175 244° Southwest 352 405 18,800 1,512 Climbing Denver Center
Mon 10:06:46 AM 39.2867 -108.4256 244° Southwest 316 364 20,400 1,610 Climbing Denver Center
Mon 10:07:47 AM 39.2450 -108.5425 245° Southwest 333 383 22,100 1,561 Climbing Denver Center
Mon 10:08:49 AM 39.2033 -108.6494 243° Southwest 336 387 23,600 1,403 Climbing Denver Center
Mon 10:09:51 AM 39.1661 -108.7519 245° Southwest 338 389 25,000 1,512 Climbing Denver Center
Mon 10:10:52 AM 39.1194 -108.8753 244° Southwest 342 394 26,700 1,512 Climbing Denver Center
Mon 10:11:54 AM 39.0797 -108.9808 244° Southwest 342 394 28,100 1,403 Climbing Denver Center
Mon 10:12:56 AM 39.0342 -109.1033 244° Southwest 341 392 29,600 1,317 Climbing Denver Center
Mon 10:13:57 AM 38.9931 -109.2097 244° Southwest 344 396 30,800 1,024 Climbing Denver Center
Mon 10:14:59 AM 38.9539 -109.3158 245° Southwest 343 395 31,700 726 Climbing Denver Center
Mon 10:16:01 AM 38.9036 -109.4464 244° Southwest 366 421 32,300 537 Climbing Denver Center
Mon 10:17:02 AM 38.8594 -109.5631 244° Southwest 377 434 32,800 533 Climbing Denver Center
Mon 10:18:16 AM 38.7975 -109.7211 243° Southwest 388 447 33,500 529 Climbing Denver Center
Mon 10:19:18 AM 38.7514 -109.8436 244° Southwest 397 457 34,000 485 Climbing Denver Center
Mon 10:19:55 AM 38.7208 -109.9264 245° Southwest 399 459 34,300 612 Climbing Salt Lake Center
Mon 10:20:56 AM 38.6650 -110.0692 243° Southwest 402 463 35,000 585 Climbing Salt Lake Center
Mon 10:21:58 AM 38.6178 -110.1925 244° Southwest 403 464 35,500 488 Climbing Salt Lake Center
Mon 10:22:59 AM 38.5697 -110.3167 244° Southwest 406 467 36,000 483 Climbing Salt Lake Center
Mon 10:23:25 AM 38.5447 -110.3769 242° Southwest 405 466 36,200 545 Climbing Denver Center
Mon 10:24:27 AM 38.4869 -110.5203 243° Southwest 406 467 36,800 532 Climbing Denver Center
Mon 10:25:29 AM 38.4386 -110.6425 243° Southwest 406 467 37,300 557 Climbing Denver Center
Mon 10:26:04 AM 38.4086 -110.7258 245° Southwest 403 464 37,700 433 Climbing Salt Lake Center
Mon 10:27:06 AM 38.3553 -110.8411 239° Southwest 396 456 38,000 145 Climbing Salt Lake Center
Mon 10:28:08 AM 38.3031 -110.9592 241° Southwest 393 452 38,000  Level Salt Lake Center
Mon 10:29:09 AM 38.2486 -111.0800 240° Southwest 394 453 38,000  Level Salt Lake Center
Mon 10:30:11 AM 38.1844 -111.2250 241° Southwest 392 451 38,000  Level Salt Lake Center
Mon 10:31:13 AM 38.1303 -111.3439 240° Southwest 391 450 38,000  Level Salt Lake Center
Mon 10:32:15 AM 38.0772 -111.4611 240° Southwest 385 443 38,000  Level Salt Lake Center
Mon 10:33:16 AM 38.0233 -111.5808 240° Southwest 390 449 38,000  Level Salt Lake Center
Mon 10:34:18 AM 37.9678 -111.7003 239° Southwest 393 452 38,000  Level Salt Lake Center
Mon 10:35:20 AM 37.9122 -111.8211 240° Southwest 396 456 38,000  Level Salt Lake Center
Mon 10:36:22 AM 37.8586 -111.9389 240° Southwest 389 448 38,000  Level Salt Lake Center
Mon 10:37:23 AM 37.7947 -112.0781 240° Southwest 381 438 38,000  Level Salt Lake Center
Mon 10:38:25 AM 37.7408 -112.1939 240° Southwest 382 440 38,000  Level Salt Lake Center
Mon 10:39:27 AM 37.6878 -112.3056 239° Southwest 374 430 38,000  Level Salt Lake Center
Mon 10:40:29 AM 37.6228 -112.4089 232° Southwest 375 432 38,000  Level Salt Lake Center
Mon 10:41:31 AM 37.5561 -112.5103 230° Southwest 374 430 38,000  Level Salt Lake Center
Mon 10:42:32 AM 37.4897 -112.6131 231° Southwest 374 430 38,000  Level Salt Lake Center
Mon 10:43:34 AM 37.4214 -112.7161 230° Southwest 377 434 38,000  Level Salt Lake Center
Mon 10:44:36 AM 37.3539 -112.8208 231° Southwest 380 437 38,000  Level Salt Lake Center
Mon 10:45:38 AM 37.2878 -112.9242 231° Southwest 378 435 38,000  Level Salt Lake Center
Mon 10:46:40 AM 37.2083 -113.0472 231° Southwest 377 434 38,000  Level Salt Lake Center
Mon 10:47:42 AM 37.1403 -113.1497 230° Southwest 380 437 38,000  Level Salt Lake Center
Mon 10:48:55 AM 37.0603 -113.2725 231° Southwest 380 437 38,000  Level Los Angeles Center
Mon 10:50:47 AM 36.9411 -113.4575 231° Southwest 378 435 38,000  Level Salt Lake Center
Mon 10:51:49 AM 36.8750 -113.5589 231° Southwest 378 435 38,000  Level Salt Lake Center
Mon 10:52:51 AM 36.8078 -113.6586 230° Southwest 377 434 38,000  Level Salt Lake Center
Mon 10:54:04 AM 36.7133 -113.7992 230° Southwest 379 436 38,000  Level Los Angeles Center
Mon 10:55:06 AM 36.6461 -113.9011 231° Southwest 379 436 38,000  Level Los Angeles Center
Mon 10:56:08 AM 36.5789 -114.0000 230° Southwest 377 434 38,000  Level Los Angeles Center
Mon 10:57:10 AM 36.5044 -114.1094 230° Southwest 376 433 38,000  Level Los Angeles Center
Mon 10:58:12 AM 36.4372 -114.2100 230° Southwest 377 434 38,000  Level Los Angeles Center
Mon 10:59:14 AM 36.3711 -114.3083 230° Southwest 373 429 38,000  Level Los Angeles Center
Mon 11:00:16 AM 36.3053 -114.4094 231° Southwest 375 432 38,000  Level Los Angeles Center
Mon 11:01:18 AM 36.2386 -114.5069 230° Southwest 372 428 38,000 -145 Level Los Angeles Center
Mon 11:02:20 AM 36.1708 -114.6064 230° Southwest 375 432 37,700 -488 Descending Los Angeles Center
Mon 11:03:21 AM 36.1003 -114.7086 230° Southwest 386 444 37,000 -341 Descending Los Angeles Center
Mon 11:04:23 AM 36.0300 -114.8128 230° Southwest 391 450 37,000  Level Los Angeles Center
Mon 11:05:25 AM 35.9425 -114.9350 229° Southwest 392 451 37,000  Level Los Angeles Center
Mon 11:06:27 AM 35.8683 -115.0328 227° Southwest 390 449 37,000  Level Los Angeles Center
Mon 11:07:29 AM 35.7947 -115.1325 228° Southwest 390 449 37,000  Level Los Angeles Center
Mon 11:08:31 AM 35.7219 -115.2339 229° Southwest 392 451 37,000  Level Los Angeles Center
Mon 11:09:33 AM 35.6503 -115.3314 228° Southwest 386 444 37,000  Level Los Angeles Center
Mon 11:10:35 AM 35.5772 -115.4303 228° Southwest 388 447 37,000 -484 Level Los Angeles Center
Mon 11:11:37 AM 35.5028 -115.5294 227° Southwest 392 451 36,000 -1,355 Descending Los Angeles Center
Mon 11:12:39 AM 35.4214 -115.6389 228° Southwest 395 455 34,200 -1,500 Descending Los Angeles Center
Mon 11:13:41 AM 35.3489 -115.7353 227° Southwest 386 444 32,900 -1,065 Descending Los Angeles Center
Mon 11:14:43 AM 35.2719 -115.8375 227° Southwest 404 465 32,000 -1,161 Descending Los Angeles Center
Mon 11:15:45 AM 35.1953 -115.9364 227° Southwest 403 464 30,500 -1,548 Descending Los Angeles Center
Mon 11:16:47 AM 35.1103 -116.0522 228° Southwest 386 444 28,800 -1,548 Descending Los Angeles Center
Mon 11:17:49 AM 35.0319 -116.1522 226° Southwest 401 461 27,300 -1,403 Descending Los Angeles Center
Mon 11:18:51 AM 34.9544 -116.2528 227° Southwest 407 468 25,900 -1,113 Descending Los Angeles Center
Mon 11:19:53 AM 34.8772 -116.3547 227° Southwest 408 470 25,000 -919 Descending Los Angeles Center
Mon 11:20:55 AM 34.8092 -116.4617 232° Southwest 400 460 24,000 -919 Descending Los Angeles Center
Mon 11:21:57 AM 34.7839 -116.5950 257° West 404 465 23,100 -976 Descending Los Angeles Center
Mon 11:22:58 AM 34.7706 -116.7350 263° West 414 476 22,000 -1,024 Descending Los Angeles Center
Mon 11:24:00 AM 34.7550 -116.8875 263° West 380 437 21,000 -968 Descending Los Angeles Center
Mon 11:25:02 AM 34.7417 -117.0211 263° West 390 449 20,000 -919 Descending Los Angeles Center
Mon 11:26:04 AM 34.7286 -117.1517 263° West 390 449 19,100 -871 Descending Los Angeles Center
Mon 11:27:06 AM 34.7144 -117.2800 262° West 382 440 18,200 -919 Descending Los Angeles Center
Mon 11:28:08 AM 34.7014 -117.4092 263° West 382 440 17,200 -919 Descending Los Angeles Center
Mon 11:29:10 AM 34.6878 -117.5389 263° West 384 442 16,300 -823 Descending Los Angeles Center
Mon 11:30:12 AM 34.6753 -117.6600 263° West 367 422 15,500 -823 Descending Los Angeles Center
Mon 11:31:14 AM 34.6622 -117.7769 262° West 352 405 14,600 -726 Descending Los Angeles Center
Mon 11:32:16 AM 34.6469 -117.9267 263° West 369 425 14,000 -532 Descending Los Angeles Center
Mon 11:33:18 AM 34.6342 -118.0428 262° West 349 402 13,500 -1,306 Descending Los Angeles Center
Mon 11:34:20 AM 34.6094 -118.1700 257° West 356 410 11,300 -1,839 Descending Los Angeles Center
Mon 11:35:22 AM 34.5875 -118.2614 254° West 286 329 9,700 -1,488 Descending Los Angeles Center
Mon 11:36:25 AM 34.5686 -118.3481 255° West 268 308 8,200 -816 Descending Los Angeles Center
Mon 11:37:27 AM 34.5322 -118.4167 237° Southwest 248 285 8,000 -683 Descending Los Angeles Center
Mon 11:38:28 AM 34.4897 -118.4631 222° Southwest 252 290 6,800 -1,065 Descending Los Angeles Center
Mon 11:39:31 AM 34.4272 -118.5303 222° Southwest 253 291 5,800 -864 Descending Los Angeles Center
Mon 11:40:33 AM 34.3517 -118.5700 203° Southwest 253 291 5,000 -387 Descending Los Angeles Center
Mon 11:41:35 AM 34.2822 -118.5886 192° South 258 297 5,000 -242 Level Los Angeles Center
Mon 11:42:37 AM 34.2178 -118.5861 178° South 244 281 4,500 -968 Descending Los Angeles Center
Mon 11:43:39 AM 34.2008 -118.5128 106° East 237 273 3,000 -1,113 Descending Los Angeles Center
Mon 11:44:41 AM 34.1986 -118.4597 93° East 157 181 2,200 -726 Descending Los Angeles Center
Mon 11:45:43 AM 34.1986 -118.4172 90° East 128 147 1,500 -528 Descending Los Angeles Center
Mon 11:46:46 AM 34.1989 -118.3733 90° East 122 140 1,100 -381 Descending Los Angeles Center
Mon 11:48:00 AM 34.2000 -118.3500 90° East  Level FlightAware Approximate
Mon 11:55:00 AM 34.2007 -118.3587 90° East  Level Estimated

Login

Don't have an account? Register now (free) for customized features, flight alerts, and more!